Main page
METAR-TAF:

METAR-TAF

Airports :

Toledo Suburban Airport

Lambertville, Michigan, United States

latitude: 41-44-09N, longitude: 083-39-19W, elevation: 669 ft

Current weather observation

The report was made 20 minutes ago, at 08:35 UTC
Calm wind
Temperature 34°F
Humidity 69%
Pressure 30.11 in. Hg
Visibility: 10 miles
Clear sky

METAR: KDUH 220835Z AUTO 00000KT 10SM CLR 01/M04 A3011 RMK AO2 T00111039

Time: 04:55 (08:55 UTC)


TAF: missing

Weather observations and forecasts of more than 4000 airports (METAR and TAF reports).

The available stations are represented by yellow and red dots on the map.

Hover mouse over dot to see the name of the station.

Then click to see weather observations and forecasts.

To change the map : click on the green buttons with a black cross to zoom in, on the green button with a dash to zoom out, or on the green arrows for adjacent maps.


METAR-TAF: